Portada
METAR-TAF:

METAR-TAF

Aeropuertos :

Lima, Perú

Aeropuerto Internacional Jorge Chávez

latitud: 12-00S, longitud: 077-07W, altitud: 12 m

Observación

El informe se hizo hace 1 hora y 0 minutos, a las 17:00 UTC
Viento 8 kt del sur, variando entre sureste y sur-suroeste
Temperatura 26°C
Humedad 74%
Presión 1011 hPa
Visibilidad 10 km o más
Escasas nubes a una altura de 1100 ft
Nubes dispersas a una altura de 23000 ft

METAR: SPJC 241700Z 17008KT 140V210 9999 FEW011 SCT230 26/21 Q1011 NOSIG RMK PP000

Hora: 13:00 (18:00 UTC)

Pronóstico

El informe se hizo hace 1 hora y 0 minutos, a las 17:00 UTC
Pronóstico válido del 24 a las 18 UTC al 25 a las 18 UTC
Viento 12 kt del sur
Visibilidad 10 km o más
Escasas nubes a una altura de 1500 ft
A partir de las 25 a las 0300 UTC
Viento 8 kt del sur
Visibilidad 10 km o más
Cielo nuboso a una altura de 10000 ft

TAF: SPJC 241700Z 2418/2518 18012KT 9999 FEW015 TX30/2419Z TN23/2511Z FM250300 17008KT 9999 BKN100

Observaciones y pronósticos meteorológicos de más de 4000 aeropuertos (mensajes METAR y TAF).

Los puntos amarillos y rojos representan las estaciones disponibles.

Ponga el ratón en el punto deseado para ver el nombre de la estación.

Haga clic para ver las observaciones y los pronósticos meteorológicos.

Para cambiar el mapa : haga clic en los botones verdes con una cruz de color negro para hacer un zoom, en el botón verde con un guión para alejar o en las flechas verdes para mapas adyacentes.


METAR-TAF: